createdAt,value
2018-12-26T00:03:28.285Z,11.02
2018-12-26T00:09:23.157Z,11.83
2018-12-26T00:15:18.171Z,12.13
2018-12-26T00:21:13.165Z,11.3
2018-12-26T00:27:08.184Z,10.72
2018-12-26T00:33:03.179Z,9.4
2018-12-26T00:38:58.184Z,9.63
2018-12-26T00:44:53.188Z,9.2
2018-12-26T00:50:48.178Z,9.52
2018-12-26T00:56:43.203Z,8.52
2018-12-26T01:02:38.242Z,8.92
2018-12-26T01:08:33.242Z,7.4
2018-12-26T01:14:28.205Z,7.74
2018-12-26T01:20:23.218Z,8.28
2018-12-26T01:26:19.163Z,8.27
2018-12-26T01:32:13.264Z,7.39
2018-12-26T01:38:08.226Z,8.27
2018-12-26T01:44:03.202Z,8.39
2018-12-26T01:49:58.266Z,7.9
2018-12-26T01:55:53.240Z,8.82
2018-12-26T02:01:48.239Z,8.19
2018-12-26T02:07:43.278Z,8.47
2018-12-26T02:13:38.246Z,8.2
2018-12-26T02:19:33.318Z,8.48
2018-12-26T02:25:28.286Z,8.81
2018-12-26T02:31:23.287Z,8.75
2018-12-26T02:37:18.287Z,8.34
2018-12-26T02:43:13.252Z,8.42
2018-12-26T02:49:08.244Z,7.39
2018-12-26T02:55:03.282Z,6.71
2018-12-26T03:00:58.242Z,6.03
2018-12-26T03:06:53.251Z,5.39
2018-12-26T03:12:48.310Z,4.68
2018-12-26T03:18:43.316Z,4.41
2018-12-26T03:24:38.281Z,4.75
2018-12-26T03:30:33.367Z,4.82
2018-12-26T03:36:28.252Z,4.15
2018-12-26T03:42:23.285Z,4.46
2018-12-26T03:48:18.268Z,4.37
2018-12-26T03:54:13.321Z,4.59
2018-12-26T04:00:08.312Z,4.04
2018-12-26T04:06:03.314Z,4.87
2018-12-26T04:11:58.317Z,4.48
2018-12-26T04:17:53.414Z,3.96
2018-12-26T04:23:48.294Z,4.68
2018-12-26T04:29:43.304Z,5.13
2018-12-26T04:35:38.368Z,6.15
2018-12-26T04:41:33.346Z,5.4
2018-12-26T04:47:28.329Z,5.17
2018-12-26T04:53:23.372Z,5.66
2018-12-26T04:59:18.330Z,5.97
2018-12-26T05:05:13.334Z,6.21
2018-12-26T05:11:08.333Z,4.96
2018-12-26T05:17:03.374Z,5.37
2018-12-26T05:22:58.328Z,4.71
2018-12-26T05:28:53.360Z,4.98
2018-12-26T05:34:48.323Z,5.37
2018-12-26T05:40:43.372Z,5.1
2018-12-26T05:46:38.339Z,5.85
2018-12-26T05:52:33.341Z,6.01
2018-12-26T05:58:28.330Z,5.89
2018-12-26T06:04:23.359Z,4.55
2018-12-26T06:10:18.379Z,5.87
2018-12-26T06:16:13.391Z,5.68
2018-12-26T06:22:08.400Z,5.63
2018-12-26T06:28:03.364Z,5.02
2018-12-26T06:33:58.364Z,6.53
2018-12-26T06:39:53.383Z,6.07
2018-12-26T06:45:48.380Z,6.52
2018-12-26T06:51:43.382Z,5.73
2018-12-26T06:57:38.373Z,6.38
2018-12-26T07:03:33.403Z,6.14
2018-12-26T07:09:28.374Z,6.58
2018-12-26T07:15:23.408Z,6.41
2018-12-26T07:21:18.409Z,6.74
2018-12-26T07:27:13.418Z,5.53
2018-12-26T07:33:08.394Z,6.34
2018-12-26T07:39:03.427Z,6.87
2018-12-26T07:44:58.427Z,6.59
2018-12-26T07:50:53.405Z,5.68
2018-12-26T07:56:48.425Z,6.07
2018-12-26T08:02:43.424Z,7.35
2018-12-26T08:08:38.424Z,7.05
2018-12-26T08:14:33.472Z,7.18
2018-12-26T08:20:28.411Z,6.49
2018-12-26T08:26:23.415Z,12.71
2018-12-26T08:32:18.431Z,6.3
2018-12-26T08:38:13.467Z,7.03
2018-12-26T08:44:08.455Z,5.73
2018-12-26T08:50:03.476Z,6.09
2018-12-26T08:55:58.449Z,5.96
2018-12-26T09:01:53.458Z,5.41
2018-12-26T09:07:48.454Z,6.06
2018-12-26T09:13:43.460Z,6.23
2018-12-26T09:19:38.452Z,5.75
2018-12-26T09:25:33.465Z,7.52
2018-12-26T09:31:28.443Z,5.19
2018-12-26T09:37:23.453Z,6.04
2018-12-26T09:43:18.463Z,5.17
2018-12-26T09:49:13.476Z,6.1
2018-12-26T09:55:08.462Z,5.49
2018-12-26T10:01:03.521Z,4.8
2018-12-26T10:06:58.486Z,5.44
2018-12-26T10:12:53.498Z,8.23
2018-12-26T10:18:48.482Z,6.51
2018-12-26T10:24:43.506Z,6.13
2018-12-26T10:30:38.498Z,5.65
2018-12-26T10:36:33.494Z,5.49
2018-12-26T10:42:28.520Z,8.46
2018-12-26T10:48:23.553Z,6.46
2018-12-26T10:54:18.544Z,5.8
2018-12-26T11:00:13.558Z,5.48
2018-12-26T11:06:08.511Z,5.75
2018-12-26T11:12:03.511Z,6.25
2018-12-26T11:17:58.499Z,7.34
2018-12-26T11:23:53.535Z,6.67
2018-12-26T11:29:48.535Z,6.64
2018-12-26T11:35:43.534Z,5.81
2018-12-26T11:41:38.527Z,5.78
2018-12-26T11:47:33.560Z,6.99
2018-12-26T11:53:28.564Z,5.52
2018-12-26T11:59:27.218Z,6.53
2018-12-26T12:05:18.526Z,5.44
2018-12-26T12:11:13.551Z,4.98
2018-12-26T12:17:08.559Z,4.74
2018-12-26T12:23:03.547Z,4.46
2018-12-26T12:28:58.552Z,4.83
2018-12-26T12:34:53.556Z,4.07
2018-12-26T12:40:48.595Z,4.86
2018-12-26T12:46:43.601Z,4
2018-12-26T12:52:38.606Z,3.63
2018-12-26T12:58:33.592Z,4.83
2018-12-26T13:04:28.594Z,4.11
2018-12-26T13:10:23.580Z,4.67
2018-12-26T13:16:18.588Z,4.87
2018-12-26T13:22:13.585Z,4.22
2018-12-26T13:28:08.626Z,4.33
2018-12-26T13:34:03.627Z,4.09
2018-12-26T13:39:58.609Z,4.79
2018-12-26T13:45:53.594Z,4.59
2018-12-26T13:51:48.601Z,5.17
2018-12-26T13:57:43.617Z,5
2018-12-26T14:03:38.591Z,4.9
2018-12-26T14:09:33.622Z,5.27
2018-12-26T14:15:28.608Z,4.95
2018-12-26T14:21:23.647Z,5.51
2018-12-26T14:27:18.678Z,5.03
2018-12-26T14:33:13.622Z,5.08
2018-12-26T14:39:08.658Z,4.93
2018-12-26T14:45:03.673Z,4
2018-12-26T14:50:58.628Z,4.19
2018-12-26T14:56:53.645Z,4.44
2018-12-26T15:02:48.644Z,4.36
2018-12-26T15:08:43.660Z,4
2018-12-26T15:14:38.654Z,4.28
2018-12-26T15:20:33.701Z,4.33
2018-12-26T15:26:28.666Z,4.6
2018-12-26T15:32:23.679Z,4.24
2018-12-26T15:38:18.653Z,6.48
2018-12-26T15:44:13.644Z,6.68
2018-12-26T15:50:08.672Z,5.16
2018-12-26T15:56:03.718Z,6.75
2018-12-26T16:01:58.703Z,8.01
2018-12-26T16:07:53.664Z,5.57
2018-12-26T16:13:48.676Z,6.07
2018-12-26T16:19:43.679Z,6.04
2018-12-26T16:25:38.688Z,4.67
2018-12-26T16:31:33.725Z,5.51
2018-12-26T16:37:28.695Z,6.55
2018-12-26T16:43:23.722Z,5.57
2018-12-26T16:49:18.763Z,9.18
2018-12-26T16:55:13.739Z,10.12
2018-12-26T17:01:08.713Z,8.94
2018-12-26T17:07:03.722Z,8.77
2018-12-26T17:12:58.724Z,6.42
2018-12-26T17:18:53.766Z,8.51
2018-12-26T17:24:48.726Z,10.09
2018-12-26T17:30:43.755Z,9.61
2018-12-26T17:36:38.736Z,8.35
2018-12-26T17:42:33.749Z,10.23
2018-12-26T17:48:28.762Z,10.43
2018-12-26T17:54:23.736Z,11.43
2018-12-26T18:00:18.731Z,12
2018-12-26T18:06:13.783Z,15.95
2018-12-26T18:12:11.972Z,14.25
2018-12-26T18:18:03.781Z,12.3
2018-12-26T18:23:58.746Z,13.95
2018-12-26T18:29:53.749Z,12.33
2018-12-26T18:35:48.764Z,10.75
2018-12-26T18:41:43.777Z,12.94
2018-12-26T18:47:38.776Z,11.81
2018-12-26T18:53:33.801Z,12.48
2018-12-26T18:59:28.774Z,11.16
2018-12-26T19:05:23.832Z,11.09
2018-12-26T19:11:18.838Z,10.2
2018-12-26T19:17:13.844Z,14.74
2018-12-26T19:23:08.800Z,15.77
2018-12-26T19:29:03.812Z,20.77
2018-12-26T19:34:58.799Z,18.83
2018-12-26T19:40:53.844Z,17.83
2018-12-26T19:46:48.802Z,17.73
2018-12-26T19:52:43.826Z,19.98
2018-12-26T19:58:38.827Z,14.01
2018-12-26T20:04:33.825Z,15.66
2018-12-26T20:10:28.825Z,14.61
2018-12-26T20:16:23.809Z,13.34
2018-12-26T20:22:18.844Z,12.91
2018-12-26T20:28:13.924Z,12.98
2018-12-26T20:34:08.848Z,12.67
2018-12-26T20:40:03.842Z,13.02
2018-12-26T20:45:58.862Z,13.18
2018-12-26T20:51:53.886Z,12.57
2018-12-26T20:57:48.841Z,13.2
2018-12-26T21:03:43.836Z,12.83
2018-12-26T21:09:38.864Z,10.29
2018-12-26T21:15:33.893Z,12.73
2018-12-26T21:21:28.858Z,11.24
2018-12-26T21:27:23.836Z,10.82
2018-12-26T21:33:18.971Z,11.4
2018-12-26T21:39:13.889Z,11.51
2018-12-26T21:45:08.869Z,12.71
2018-12-26T21:51:03.885Z,13.29
2018-12-26T21:56:58.885Z,14.15
2018-12-26T22:02:53.881Z,12.61
2018-12-26T22:08:48.918Z,13.38
2018-12-26T22:14:43.890Z,14.54
2018-12-26T22:20:38.904Z,15.24
2018-12-26T22:26:33.892Z,13.87
2018-12-26T22:32:30.677Z,14.02
2018-12-26T22:38:23.919Z,13.35
2018-12-26T22:44:18.896Z,12.2
2018-12-26T22:50:13.893Z,12.83
2018-12-26T22:56:08.908Z,11.77
2018-12-26T23:02:03.927Z,11.31
2018-12-26T23:07:58.898Z,13.42
2018-12-26T23:13:53.929Z,12.86
2018-12-26T23:19:48.939Z,12.78
2018-12-26T23:25:43.936Z,12.02
2018-12-26T23:31:38.973Z,13.18
2018-12-26T23:37:33.951Z,13.24
2018-12-26T23:43:28.933Z,12.34
2018-12-26T23:49:23.935Z,12.25
2018-12-26T23:55:18.954Z,13.41
